Time;durP1;ratioP1;P1;durP2;ratioP2;P2;SDS_P1;SDS_P2;PMS_P1;PMS_P2;Temp;Humidity;BMP_temperature;BMP_pressure;BME280_temperature;BME280_humidity;BME280_pressure;Samples;Min_cycle;Max_cycle;Signal;HPM_P1;HPM_P2
2021/10/09 00:02:06;0.00;0.00;0.62;0.00;0.00;0.62;5.90;5.30;;;27.30;29.00;;;;;;2255301;61;20822;-71
2021/10/09 00:04:51;0.00;0.00;0.62;0.00;0.00;0.62;5.90;5.30;;;27.30;29.00;;;;;;2258186;61;20355;-67
2021/10/09 00:07:36;0.00;0.00;0.62;0.00;0.00;0.62;6.43;5.17;;;27.30;29.10;;;;;;2254498;61;20374;-68
2021/10/09 00:10:27;0.00;0.00;0.62;0.00;0.00;0.62;9.60;5.37;;;27.30;29.10;;;;;;2258333;61;20382;-69
2021/10/09 00:13:12;0.00;0.00;0.62;0.00;0.00;0.62;6.70;5.07;;;27.30;29.20;;;;;;2257329;61;20363;-66
2021/10/09 00:15:57;0.00;0.00;0.62;0.00;0.00;0.62;5.83;5.33;;;27.20;29.10;;;;;;2255074;61;20363;-68
2021/10/09 00:18:41;0.00;0.00;0.62;0.00;0.00;0.62;5.47;4.97;;;27.20;29.20;;;;;;2258144;61;20425;-67
2021/10/09 00:21:26;0.00;0.00;0.62;0.00;0.00;0.62;5.50;5.00;;;27.30;29.20;;;;;;2257417;61;20382;-66
2021/10/09 00:24:11;0.00;0.00;0.62;0.00;0.00;0.62;4.90;4.40;;;27.20;29.20;;;;;;2258279;61;20425;-68
2021/10/09 00:26:57;0.00;0.00;0.62;0.00;0.00;0.62;5.50;5.00;;;27.20;29.20;;;;;;2258069;61;20431;-69
2021/10/09 00:29:42;0.00;0.00;0.62;0.00;0.00;0.62;5.13;4.60;;;27.20;29.30;;;;;;2257515;61;20358;-69
2021/10/09 00:32:26;0.00;0.00;0.62;0.00;0.00;0.62;4.83;4.03;;;27.20;29.30;;;;;;2255139;61;20347;-68
2021/10/09 00:35:11;0.00;0.00;0.62;0.00;0.00;0.62;6.03;5.47;;;27.20;29.30;;;;;;2257785;61;20460;-69
2021/10/09 00:37:55;0.00;0.00;0.62;0.00;0.00;0.62;4.73;4.33;;;27.20;29.30;;;;;;2258162;61;20383;-66
2021/10/09 00:40:40;0.00;0.00;0.62;0.00;0.00;0.62;5.33;4.93;;;27.20;29.30;;;;;;2258153;61;20723;-67
2021/10/09 00:43:26;0.00;0.00;0.62;0.00;0.00;0.62;4.63;4.20;;;27.20;29.30;;;;;;2257436;61;20733;-66
2021/10/09 00:46:11;0.00;0.00;0.62;0.00;0.00;0.62;4.53;4.13;;;27.20;29.40;;;;;;2258196;61;20586;-69
2021/10/09 00:48:55;0.00;0.00;0.62;0.00;0.00;0.62;4.77;4.17;;;27.20;29.40;;;;;;2258078;61;20379;-67
2021/10/09 00:51:40;0.00;0.00;0.62;0.00;0.00;0.62;4.90;4.20;;;27.20;29.40;;;;;;2257415;61;20417;-70
2021/10/09 00:54:27;0.00;0.00;0.62;0.00;0.00;0.62;4.27;3.87;;;27.30;29.40;;;;;;2258363;61;20383;-67
2021/10/09 00:57:13;0.00;0.00;0.62;0.00;0.00;0.62;6.30;4.00;;;27.20;29.40;;;;;;2254259;61;20383;-69
2021/10/09 01:00:00;0.00;0.00;0.62;0.00;0.00;0.62;4.07;3.67;;;27.20;29.40;;;;;;2254980;61;20431;-69
2021/10/09 01:02:46;0.00;0.00;0.62;0.00;0.00;0.62;4.40;4.00;;;27.20;29.40;;;;;;2254981;61;20470;-68
2021/10/09 01:05:32;0.00;0.00;0.62;0.00;0.00;0.62;4.50;4.10;;;27.20;29.40;;;;;;2257276;61;20720;-67
2021/10/09 01:08:17;0.00;0.00;0.62;0.00;0.00;0.62;4.53;4.13;;;27.20;29.40;;;;;;2257966;61;20625;-70
2021/10/09 01:11:02;0.00;0.00;0.62;0.00;0.00;0.62;5.13;4.07;;;27.20;29.40;;;;;;2254900;61;20572;-67
2021/10/09 01:13:47;0.00;0.00;0.62;0.00;0.00;0.62;4.53;4.10;;;27.20;29.40;;;;;;2254117;61;20443;-70
2021/10/09 01:16:34;0.00;0.00;0.62;0.00;0.00;0.62;5.50;4.10;;;27.20;29.40;;;;;;2254865;61;20359;-69
2021/10/09 01:19:20;0.00;0.00;0.62;0.00;0.00;0.62;4.20;3.80;;;27.20;29.40;;;;;;2254464;61;20455;-70
2021/10/09 01:22:11;0.00;0.00;0.62;0.00;0.00;0.62;4.97;3.57;;;27.20;29.50;;;;;;2254821;61;20397;-70
2021/10/09 01:24:56;0.00;0.00;0.62;0.00;0.00;0.62;4.30;3.90;;;27.20;29.50;;;;;;2254856;61;20449;-68
2021/10/09 01:27:41;0.00;0.00;0.62;0.00;0.00;0.62;5.10;4.07;;;27.20;29.50;;;;;;2257092;61;20397;-67
2021/10/09 01:30:26;0.00;0.00;0.62;0.00;0.00;0.62;4.47;4.07;;;27.20;29.50;;;;;;2254904;61;20410;-65
2021/10/09 01:33:11;0.00;0.00;0.62;0.00;0.00;0.62;5.20;4.73;;;27.20;29.50;;;;;;2254764;61;20402;-64
2021/10/09 01:35:57;0.00;0.00;0.62;0.00;0.00;0.62;4.70;4.00;;;27.20;29.40;;;;;;2253936;61;20366;-70
2021/10/09 01:38:51;0.00;0.00;0.62;0.00;0.00;0.62;5.33;4.93;;;27.20;29.40;;;;;;2258178;61;20409;-72
2021/10/09 01:41:43;0.00;0.00;0.62;0.00;0.00;0.62;5.93;4.83;;;27.10;29.40;;;;;;2254449;61;20386;-70
2021/10/09 01:44:28;0.00;0.00;0.62;0.00;0.00;0.62;5.07;4.57;;;27.10;29.30;;;;;;2252112;61;20382;-67
2021/10/09 01:47:15;0.00;0.00;0.62;0.00;0.00;0.62;4.63;4.23;;;27.10;29.30;;;;;;2257823;61;20474;-70
2021/10/09 01:50:02;0.00;0.00;0.62;0.00;0.00;0.62;4.33;3.93;;;27.10;29.40;;;;;;2253916;61;20766;-69
2021/10/09 01:52:47;0.00;0.00;0.62;0.00;0.00;0.62;4.80;4.30;;;27.10;29.40;;;;;;2254933;61;20439;-68
2021/10/09 01:55:34;0.00;0.00;0.62;0.00;0.00;0.62;4.60;4.20;;;27.10;29.40;;;;;;2254599;61;20402;-71
2021/10/09 01:58:19;0.00;0.00;0.62;0.00;0.00;0.62;4.20;3.80;;;27.10;29.40;;;;;;2257100;61;20386;-68
2021/10/09 02:01:04;0.00;0.00;0.62;0.00;0.00;0.62;4.53;4.13;;;27.10;29.40;;;;;;2254998;61;20362;-71
2021/10/09 02:03:49;0.00;0.00;0.62;0.00;0.00;0.62;4.43;4.10;;;27.10;29.40;;;;;;2254205;61;20366;-71
2021/10/09 02:06:34;0.00;0.00;0.62;0.00;0.00;0.62;4.17;3.77;;;27.10;29.40;;;;;;2257888;61;20382;-70
2021/10/09 02:09:18;0.00;0.00;0.62;0.00;0.00;0.62;4.77;4.37;;;27.10;29.40;;;;;;2257769;61;20367;-70
2021/10/09 02:12:06;0.00;0.00;0.62;0.00;0.00;0.62;10.47;5.03;;;27.00;29.30;;;;;;2253672;61;20382;-68
2021/10/09 02:14:56;0.00;0.00;0.62;0.00;0.00;0.62;5.73;5.03;;;27.10;29.30;;;;;;2258006;61;20610;-72
2021/10/09 02:26:53;0.00;0.00;0.62;0.00;0.00;0.62;6.60;6.00;;;27.00;28.90;;;;;;2256799;61;20603;-71
2021/10/09 02:29:40;0.00;0.00;0.62;0.00;0.00;0.62;7.03;6.33;;;27.00;28.90;;;;;;2252224;61;20354;-70
2021/10/09 02:32:24;0.00;0.00;0.62;0.00;0.00;0.62;5.70;5.20;;;27.00;28.80;;;;;;2257650;61;20367;-71
2021/10/09 02:35:11;0.00;0.00;0.62;0.00;0.00;0.62;8.23;6.53;;;27.00;28.80;;;;;;2253681;61;20387;-69
2021/10/09 02:37:55;0.00;0.00;0.62;0.00;0.00;0.62;7.13;6.40;;;26.90;28.70;;;;;;2254749;61;20422;-67
2021/10/09 02:40:42;0.00;0.00;0.62;0.00;0.00;0.62;7.30;6.70;;;26.90;28.70;;;;;;2257392;61;20446;-69
2021/10/09 02:43:27;0.00;0.00;0.62;0.00;0.00;0.62;8.20;7.40;;;26.90;28.70;;;;;;2254477;61;20429;-70
2021/10/09 02:46:15;0.00;0.00;0.62;0.00;0.00;0.62;7.77;6.97;;;26.90;28.70;;;;;;2254351;61;20395;-69
2021/10/09 02:49:00;0.00;0.00;0.62;0.00;0.00;0.62;7.77;7.07;;;26.80;28.60;;;;;;2253693;61;20383;-70
2021/10/09 02:51:45;0.00;0.00;0.62;0.00;0.00;0.62;7.90;7.10;;;26.80;28.50;;;;;;2254752;61;20354;-72
2021/10/09 02:54:30;0.00;0.00;0.62;0.00;0.00;0.62;8.30;7.60;;;26.80;28.50;;;;;;2254362;61;20402;-71
2021/10/09 02:57:17;0.00;0.00;0.62;0.00;0.00;0.62;9.87;8.23;;;26.70;28.50;;;;;;2253670;61;20754;-73
2021/10/09 03:00:03;0.00;0.00;0.62;0.00;0.00;0.62;9.13;6.57;;;26.70;28.40;;;;;;2254720;61;20402;-70
2021/10/09 03:02:50;0.00;0.00;0.62;0.00;0.00;0.62;7.40;6.73;;;26.70;28.40;;;;;;2254197;61;20390;-68
2021/10/09 03:05:35;0.00;0.00;0.62;0.00;0.00;0.62;7.97;7.00;;;26.70;28.40;;;;;;2254354;61;20822;-67
2021/10/09 03:08:19;0.00;0.00;0.62;0.00;0.00;0.62;7.83;7.10;;;26.60;28.30;;;;;;2257485;61;20387;-66
2021/10/09 03:11:04;0.00;0.00;0.62;0.00;0.00;0.62;7.73;7.03;;;26.60;28.30;;;;;;2256805;61;20362;-71
2021/10/09 03:13:49;0.00;0.00;0.62;0.00;0.00;0.62;9.03;8.13;;;26.60;28.30;;;;;;2254664;61;20798;-70
2021/10/09 03:16:34;0.00;0.00;0.62;0.00;0.00;0.62;9.00;7.27;;;26.60;28.30;;;;;;2254291;61;20453;-70
2021/10/09 03:19:20;0.00;0.00;0.62;0.00;0.00;0.62;8.23;7.40;;;26.50;28.30;;;;;;2253733;61;20343;-71
2021/10/09 03:22:04;0.00;0.00;0.62;0.00;0.00;0.62;7.63;6.83;;;26.50;28.20;;;;;;2254602;61;20590;-67
2021/10/09 03:24:49;0.00;0.00;0.62;0.00;0.00;0.62;8.90;7.20;;;26.50;28.20;;;;;;2251570;61;20360;-71
2021/10/09 03:27:35;0.00;0.00;0.62;0.00;0.00;0.62;7.90;7.00;;;26.50;28.20;;;;;;2254174;61;20401;-70
2021/10/09 03:30:21;0.00;0.00;0.62;0.00;0.00;0.62;7.80;7.10;;;26.40;28.20;;;;;;2254286;61;20375;-70
2021/10/09 03:33:06;0.00;0.00;0.62;0.00;0.00;0.62;8.57;7.60;;;26.40;28.20;;;;;;2253621;61;20355;-71
2021/10/09 03:35:51;0.00;0.00;0.62;0.00;0.00;0.62;7.43;6.73;;;26.40;28.20;;;;;;2254501;61;20399;-70
2021/10/09 03:38:37;0.00;0.00;0.62;0.00;0.00;0.62;9.17;8.20;;;26.30;28.10;;;;;;2254320;61;20383;-71
2021/10/09 03:41:22;0.00;0.00;0.62;0.00;0.00;0.62;8.30;7.50;;;26.30;28.10;;;;;;2253543;61;20359;-70
2021/10/09 03:44:07;0.00;0.00;0.62;0.00;0.00;0.62;9.07;7.70;;;26.30;28.10;;;;;;2254417;61;20386;-70
2021/10/09 03:47:01;0.00;0.00;0.62;0.00;0.00;0.62;9.27;8.40;;;26.30;28.10;;;;;;2254282;61;20574;-69
2021/10/09 03:49:55;0.00;0.00;0.62;0.00;0.00;0.62;7.80;7.10;;;26.20;28.10;;;;;;2254085;61;20355;-68
2021/10/09 03:52:42;0.00;0.00;0.62;0.00;0.00;0.62;8.30;7.50;;;26.20;28.10;;;;;;2254330;61;20393;-72
2021/10/09 03:55:27;0.00;0.00;0.62;0.00;0.00;0.62;8.10;7.30;;;26.20;28.10;;;;;;2250786;61;20407;-69
2021/10/09 03:58:12;0.00;0.00;0.62;0.00;0.00;0.62;8.03;7.23;;;26.10;28.00;;;;;;2254312;61;20418;-71
2021/10/09 04:00:58;0.00;0.00;0.62;0.00;0.00;0.62;9.50;7.83;;;26.10;28.10;;;;;;2254453;61;20452;-73
2021/10/09 04:03:43;0.00;0.00;0.62;0.00;0.00;0.62;8.17;7.47;;;26.10;28.10;;;;;;2253672;61;20722;-70
2021/10/09 04:06:28;0.00;0.00;0.62;0.00;0.00;0.62;8.17;7.23;;;26.00;28.00;;;;;;2251704;61;20366;-69
2021/10/09 04:09:14;0.00;0.00;0.62;0.00;0.00;0.62;9.40;7.30;;;26.00;28.00;;;;;;2254332;61;20366;-68
2021/10/09 04:11:59;0.00;0.00;0.62;0.00;0.00;0.62;8.77;7.93;;;26.00;28.00;;;;;;2254077;61;20367;-73
2021/10/09 04:14:44;0.00;0.00;0.62;0.00;0.00;0.62;9.60;7.97;;;26.00;28.00;;;;;;2254252;61;20422;-70
2021/10/09 04:17:28;0.00;0.00;0.62;0.00;0.00;0.62;8.47;7.67;;;26.00;28.00;;;;;;2256552;61;20765;-69
2021/10/09 04:20:13;0.00;0.00;0.62;0.00;0.00;0.62;8.07;7.30;;;25.90;27.90;;;;;;2257561;61;20390;-73
2021/10/09 04:22:58;0.00;0.00;0.62;0.00;0.00;0.62;8.57;7.67;;;25.90;28.00;;;;;;2254275;61;20771;-71
2021/10/09 04:25:44;0.00;0.00;0.62;0.00;0.00;0.62;9.87;8.00;;;25.90;27.90;;;;;;2253438;61;20354;-71
2021/10/09 04:28:29;0.00;0.00;0.62;0.00;0.00;0.62;8.10;7.40;;;25.80;27.90;;;;;;2257627;61;20406;-69
2021/10/09 04:31:13;0.00;0.00;0.62;0.00;0.00;0.62;10.70;8.10;;;25.80;27.80;;;;;;2254160;61;20413;-71
2021/10/09 04:33:57;0.00;0.00;0.62;0.00;0.00;0.62;8.20;7.43;;;25.80;27.80;;;;;;2253614;61;20608;-72
2021/10/09 04:36:42;0.00;0.00;0.62;0.00;0.00;0.62;8.27;7.37;;;25.80;27.80;;;;;;2255234;61;20676;-70
2021/10/09 04:39:28;0.00;0.00;0.62;0.00;0.00;0.62;8.10;7.27;;;25.80;27.80;;;;;;2254673;61;20354;-73
2021/10/09 04:42:16;0.00;0.00;0.62;0.00;0.00;0.62;8.97;8.07;;;25.70;27.80;;;;;;2255182;61;20358;-71
2021/10/09 04:45:01;0.00;0.00;0.62;0.00;0.00;0.62;11.00;8.53;;;25.70;27.80;;;;;;2255032;61;20367;-72
2021/10/09 04:47:48;0.00;0.00;0.62;0.00;0.00;0.62;8.50;7.37;;;25.70;27.80;;;;;;2254085;61;20788;-73
2021/10/09 04:50:33;0.00;0.00;0.62;0.00;0.00;0.62;7.90;6.87;;;25.70;27.80;;;;;;2255353;61;20363;-68
2021/10/09 04:53:23;0.00;0.00;0.62;0.00;0.00;0.62;9.73;8.73;;;25.60;27.70;;;;;;2254866;61;20378;-70
2021/10/09 04:56:09;0.00;0.00;0.62;0.00;0.00;0.62;7.93;7.20;;;25.60;27.70;;;;;;2254088;61;20355;-71
2021/10/09 04:58:57;0.00;0.00;0.62;0.00;0.00;0.62;10.13;8.10;;;25.60;27.70;;;;;;2255199;61;20379;-71
2021/10/09 05:01:42;0.00;0.00;0.62;0.00;0.00;0.62;8.27;7.47;;;25.50;27.70;;;;;;2254369;61;20445;-70
2021/10/09 05:04:28;0.00;0.00;0.62;0.00;0.00;0.62;10.73;8.50;;;25.50;27.70;;;;;;2255170;61;20401;-70
2021/10/09 05:07:14;0.00;0.00;0.62;0.00;0.00;0.62;9.03;8.07;;;25.50;27.70;;;;;;2254686;61;20378;-69
2021/10/09 05:10:00;0.00;0.00;0.62;0.00;0.00;0.62;9.17;8.27;;;25.50;27.70;;;;;;2254098;61;20370;-69
2021/10/09 05:12:44;0.00;0.00;0.62;0.00;0.00;0.62;9.30;8.40;;;25.50;27.70;;;;;;2255108;61;20366;-72
2021/10/09 05:15:31;0.00;0.00;0.62;0.00;0.00;0.62;8.50;7.70;;;25.40;27.60;;;;;;2257754;61;20386;-67
2021/10/09 05:18:17;0.00;0.00;0.62;0.00;0.00;0.62;7.80;7.00;;;25.40;27.60;;;;;;2254163;61;20386;-67
2021/10/09 05:21:01;0.00;0.00;0.62;0.00;0.00;0.62;8.50;7.70;;;25.40;27.70;;;;;;2255093;61;20386;-68
2021/10/09 05:23:46;0.00;0.00;0.62;0.00;0.00;0.62;8.40;7.57;;;25.40;27.70;;;;;;2254429;61;20538;-70
2021/10/09 05:26:32;0.00;0.00;0.62;0.00;0.00;0.62;9.07;8.20;;;25.30;27.60;;;;;;2255016;61;20371;-74
2021/10/09 05:29:19;0.00;0.00;0.62;0.00;0.00;0.62;9.30;7.80;;;25.30;27.60;;;;;;2251938;61;20355;-70
2021/10/09 05:32:07;0.00;0.00;0.62;0.00;0.00;0.62;8.60;7.70;;;25.30;27.60;;;;;;2254062;61;20420;-73
2021/10/09 05:34:52;0.00;0.00;0.62;0.00;0.00;0.62;10.50;8.10;;;25.30;27.70;;;;;;2258164;61;20387;-68
2021/10/09 05:37:37;0.00;0.00;0.62;0.00;0.00;0.62;8.37;7.67;;;25.20;27.60;;;;;;2254570;61;20417;-67
2021/10/09 05:40:24;0.00;0.00;0.62;0.00;0.00;0.62;9.50;7.30;;;25.20;27.60;;;;;;2254202;61;20572;-71
2021/10/09 05:43:08;0.00;0.00;0.62;0.00;0.00;0.62;7.97;7.17;;;25.20;27.60;;;;;;2254917;61;20578;-68
2021/10/09 05:45:54;0.00;0.00;0.62;0.00;0.00;0.62;9.03;8.10;;;25.20;27.60;;;;;;2254085;61;20727;-65
2021/10/09 05:48:41;0.00;0.00;0.62;0.00;0.00;0.62;8.27;7.40;;;25.20;27.60;;;;;;2254923;61;20375;-69
2021/10/09 05:51:30;0.00;0.00;0.62;0.00;0.00;0.62;7.80;7.10;;;25.20;27.60;;;;;;2254513;61;20643;-69
2021/10/09 05:54:26;0.00;0.00;0.62;0.00;0.00;0.62;8.33;7.47;;;25.10;27.60;;;;;;2253953;61;20414;-70
2021/10/09 05:57:26;0.00;0.00;0.62;0.00;0.00;0.62;8.03;7.23;;;25.10;27.50;;;;;;2254711;61;20742;-68
2021/10/09 06:46:51;0.00;0.00;0.62;0.00;0.00;0.62;8.77;7.87;;;24.80;27.50;;;;;;2250913;61;20423;-68
2021/10/09 07:01:53;0.00;0.00;0.62;0.00;0.00;0.62;8.20;7.20;;;24.70;27.50;;;;;;2249727;61;20394;-66
2021/10/09 07:04:38;0.00;0.00;0.62;0.00;0.00;0.62;7.80;7.00;;;24.70;27.50;;;;;;2248147;61;20364;-66
2021/10/09 07:07:23;0.00;0.00;0.62;0.00;0.00;0.62;8.50;7.70;;;24.60;27.50;;;;;;2250218;61;20449;-66
2021/10/09 07:10:17;0.00;0.00;0.62;0.00;0.00;0.62;8.27;7.43;;;24.60;27.50;;;;;;2250395;61;20435;-62
2021/10/09 07:13:02;0.00;0.00;0.62;0.00;0.00;0.62;8.60;6.70;;;24.70;27.60;;;;;;2250453;61;20360;-66
2021/10/09 07:15:46;0.00;0.00;0.62;0.00;0.00;0.62;8.97;6.80;;;24.60;27.50;;;;;;2252683;61;20525;-65
2021/10/09 07:18:31;0.00;0.00;0.62;0.00;0.00;0.62;8.27;6.93;;;24.60;27.50;;;;;;2265583;61;20424;-62
2021/10/09 07:21:15;0.00;0.00;0.62;0.00;0.00;0.62;7.63;6.93;;;24.70;27.60;;;;;;2483703;53;20467;-68
2021/10/09 07:24:01;0.00;0.00;0.62;0.00;0.00;0.62;8.23;6.93;;;24.70;27.60;;;;;;2249634;61;20360;-66
2021/10/09 07:26:47;0.00;0.00;0.62;0.00;0.00;0.62;9.63;7.73;;;24.70;27.60;;;;;;2250215;61;20735;-64
2021/10/09 07:29:32;0.00;0.00;0.62;0.00;0.00;0.62;7.97;6.47;;;24.60;27.50;;;;;;2253245;61;20363;-66
2021/10/09 07:32:16;0.00;0.00;0.62;0.00;0.00;0.62;8.00;7.17;;;24.60;27.40;;;;;;2250530;61;20436;-67
2021/10/09 07:35:01;0.00;0.00;0.62;0.00;0.00;0.62;9.33;7.23;;;24.70;27.50;;;;;;2253461;61;20431;-64
2021/10/09 07:37:45;0.00;0.00;0.62;0.00;0.00;0.62;8.30;7.40;;;24.60;27.40;;;;;;2252589;61;20390;-67
2021/10/09 07:40:30;0.00;0.00;0.62;0.00;0.00;0.62;9.20;8.07;;;24.70;27.50;;;;;;2253914;61;20460;-68
2021/10/09 07:43:16;0.00;0.00;0.62;0.00;0.00;0.62;9.87;7.23;;;24.60;27.40;;;;;;2250372;61;20364;-70
2021/10/09 07:46:00;0.00;0.00;0.62;0.00;0.00;0.62;8.80;7.90;;;24.60;27.40;;;;;;2252839;61;20359;-67
2021/10/09 07:48:45;0.00;0.00;0.62;0.00;0.00;0.62;13.73;8.40;;;24.60;27.40;;;;;;2253674;61;20447;-67
2021/10/09 07:51:29;0.00;0.00;0.62;0.00;0.00;0.62;8.57;7.37;;;24.70;27.40;;;;;;2253039;61;20356;-70
2021/10/09 07:54:14;0.00;0.00;0.62;0.00;0.00;0.62;12.73;7.10;;;24.60;27.30;;;;;;2253217;61;20387;-71
2021/10/09 07:56:58;0.00;0.00;0.62;0.00;0.00;0.62;9.47;8.23;;;24.60;27.30;;;;;;2253468;61;20610;-71
2021/10/09 07:59:45;0.00;0.00;0.62;0.00;0.00;0.62;8.33;7.10;;;24.60;27.30;;;;;;2249456;61;20367;-70
2021/10/09 08:02:32;0.00;0.00;0.62;0.00;0.00;0.62;11.97;8.00;;;24.70;27.40;;;;;;2253653;61;20379;-75
2021/10/09 08:05:17;0.00;0.00;0.62;0.00;0.00;0.62;12.73;7.70;;;24.60;27.30;;;;;;2253607;61;20344;-70
2021/10/09 08:08:03;0.00;0.00;0.62;0.00;0.00;0.62;12.27;7.93;;;24.70;27.20;;;;;;2252378;61;20472;-75
2021/10/09 08:10:48;0.00;0.00;0.62;0.00;0.00;0.62;8.53;7.63;;;24.70;27.20;;;;;;2254292;61;20391;-73
2021/10/09 08:13:33;0.00;0.00;0.62;0.00;0.00;0.62;8.57;7.67;;;24.60;27.00;;;;;;2250996;61;20743;-72
2021/10/09 08:16:19;0.00;0.00;0.62;0.00;0.00;0.62;8.37;7.43;;;24.60;27.00;;;;;;2253836;61;20727;-69
2021/10/09 08:19:04;0.00;0.00;0.62;0.00;0.00;0.62;7.63;6.83;;;24.70;27.60;;;;;;2254208;61;20611;-67
2021/10/09 08:21:50;0.00;0.00;0.62;0.00;0.00;0.62;8.00;7.20;;;24.70;27.10;;;;;;2253319;61;20384;-68
2021/10/09 08:24:47;0.00;0.00;0.62;0.00;0.00;0.62;8.67;7.13;;;24.70;27.20;;;;;;2254274;61;20702;-67
2021/10/09 08:36:31;0.00;0.00;0.62;0.00;0.00;0.62;6.60;5.50;;;24.70;27.40;;;;;;2253057;61;20383;-67
2021/10/09 08:39:17;0.00;0.00;0.62;0.00;0.00;0.62;7.07;6.30;;;24.70;27.40;;;;;;2254209;61;20587;-67
2021/10/09 08:42:01;0.00;0.00;0.62;0.00;0.00;0.62;6.90;5.20;;;24.80;27.50;;;;;;2254009;61;20644;-67
2021/10/09 08:44:46;0.00;0.00;0.62;0.00;0.00;0.62;6.23;5.30;;;24.80;27.50;;;;;;2253225;61;20410;-67
2021/10/09 08:47:34;0.00;0.00;0.62;0.00;0.00;0.62;6.00;5.40;;;24.80;27.50;;;;;;2254099;61;20375;-67
2021/10/09 08:50:19;0.00;0.00;0.62;0.00;0.00;0.62;6.90;6.30;;;24.80;27.50;;;;;;2253827;61;20391;-67
2021/10/09 08:53:10;0.00;0.00;0.62;0.00;0.00;0.62;6.13;5.53;;;24.90;27.60;;;;;;2253818;61;20719;-67
2021/10/09 08:55:54;0.00;0.00;0.62;0.00;0.00;0.62;6.07;5.57;;;24.90;27.60;;;;;;2253844;61;20403;-67
2021/10/09 08:58:43;0.00;0.00;0.62;0.00;0.00;0.62;6.67;6.07;;;24.90;27.60;;;;;;2253122;61;20422;-67
2021/10/09 09:01:35;0.00;0.00;0.62;0.00;0.00;0.62;6.57;5.67;;;24.90;27.70;;;;;;2254244;61;20399;-67
2021/10/09 09:04:41;0.00;0.00;0.62;0.00;0.00;0.62;6.03;5.30;;;24.90;27.70;;;;;;2253310;61;20400;-67
2021/10/09 09:35:27;0.00;0.00;0.62;0.00;0.00;0.62;5.00;4.50;;;25.20;27.90;;;;;;2253430;61;20399;-68
2021/10/09 09:41:24;0.00;0.00;0.62;0.00;0.00;0.62;5.43;4.70;;;25.30;27.90;;;;;;2253915;61;20735;-68
2021/10/09 09:44:25;0.00;0.00;0.62;0.00;0.00;0.62;5.43;4.93;;;25.30;27.90;;;;;;2250004;61;20372;-67
2021/10/09 09:47:10;0.00;0.00;0.62;0.00;0.00;0.62;5.33;4.83;;;25.40;28.00;;;;;;2253397;61;20383;-67
2021/10/09 09:49:55;0.00;0.00;0.62;0.00;0.00;0.62;4.60;4.20;;;25.40;28.00;;;;;;2253428;61;20367;-67
2021/10/09 09:52:42;0.00;0.00;0.62;0.00;0.00;0.62;6.23;4.43;;;25.40;28.00;;;;;;2253553;61;20364;-67
2021/10/09 09:55:28;0.00;0.00;0.62;0.00;0.00;0.62;4.80;4.40;;;25.50;28.00;;;;;;2253789;61;20388;-67
2021/10/09 09:58:15;0.00;0.00;0.62;0.00;0.00;0.62;5.60;5.07;;;25.50;28.00;;;;;;2252988;61;20426;-67
2021/10/09 10:01:01;0.00;0.00;0.62;0.00;0.00;0.62;4.87;4.47;;;25.50;28.00;;;;;;2253912;61;20364;-67
2021/10/09 10:03:48;0.00;0.00;0.62;0.00;0.00;0.62;5.77;4.30;;;25.60;28.00;;;;;;2253964;61;20403;-67
2021/10/09 10:06:33;0.00;0.00;0.62;0.00;0.00;0.62;4.30;3.90;;;25.60;28.00;;;;;;2253209;61;20379;-67
2021/10/09 10:09:18;0.00;0.00;0.62;0.00;0.00;0.62;5.53;4.13;;;25.60;28.00;;;;;;2253885;61;20371;-67
2021/10/09 10:12:06;0.00;0.00;0.62;0.00;0.00;0.62;5.07;4.67;;;25.70;28.10;;;;;;2253042;61;20590;-67
2021/10/09 10:14:51;0.00;0.00;0.62;0.00;0.00;0.62;5.10;4.43;;;25.70;28.00;;;;;;2253398;61;20392;-68
2021/10/09 10:17:39;0.00;0.00;0.62;0.00;0.00;0.62;5.40;4.40;;;25.80;28.10;;;;;;2250517;61;20746;-68
2021/10/09 10:20:45;0.00;0.00;0.62;0.00;0.00;0.62;4.70;4.20;;;25.80;28.10;;;;;;2249795;61;20376;-68
2021/10/09 10:23:36;0.00;0.00;0.62;0.00;0.00;0.62;4.67;3.87;;;25.80;28.10;;;;;;2254098;61;20364;-68
2021/10/09 10:26:33;0.00;0.00;0.62;0.00;0.00;0.62;4.77;4.03;;;25.90;28.20;;;;;;2253689;61;20351;-68
2021/10/09 10:29:23;0.00;0.00;0.62;0.00;0.00;0.62;4.93;4.43;;;25.90;28.10;;;;;;2253411;61;20356;-67
2021/10/09 10:32:14;0.00;0.00;0.62;0.00;0.00;0.62;4.80;4.40;;;26.00;28.20;;;;;;2253673;61;20368;-67
2021/10/09 10:35:39;0.00;0.00;0.62;0.00;0.00;0.62;4.90;4.40;;;26.00;28.10;;;;;;2252730;61;20399;-68
2021/10/09 10:38:47;0.00;0.00;0.62;0.00;0.00;0.62;5.07;3.83;;;26.10;28.20;;;;;;2253918;61;20819;-67
2021/10/09 10:42:00;0.00;0.00;0.62;0.00;0.00;0.62;4.30;3.83;;;26.10;28.20;;;;;;2253722;61;20720;-67
2021/10/09 10:44:57;0.00;0.00;0.62;0.00;0.00;0.62;4.03;3.63;;;26.20;28.20;;;;;;2253870;61;20371;-67
2021/10/09 10:48:11;0.00;0.00;0.62;0.00;0.00;0.62;5.80;4.17;;;26.20;28.20;;;;;;2253556;61;20388;-67
2021/10/09 10:51:17;0.00;0.00;0.62;0.00;0.00;0.62;4.43;3.83;;;26.20;28.10;;;;;;2252875;61;20410;-67
2021/10/09 10:57:21;0.00;0.00;0.62;0.00;0.00;0.62;3.90;3.50;;;26.30;28.20;;;;;;2252464;61;20765;-68
2021/10/09 11:00:19;0.00;0.00;0.62;0.00;0.00;0.62;4.23;3.83;;;26.40;28.20;;;;;;2253522;61;20760;-67
2021/10/09 11:03:11;0.00;0.00;0.62;0.00;0.00;0.62;4.87;3.73;;;26.40;28.20;;;;;;2253022;61;20368;-67
2021/10/09 11:05:56;0.00;0.00;0.62;0.00;0.00;0.62;4.30;3.73;;;26.50;28.20;;;;;;2252868;61;20376;-67
2021/10/09 11:08:42;0.00;0.00;0.62;0.00;0.00;0.62;4.70;4.20;;;26.50;28.20;;;;;;2253663;61;20608;-67
2021/10/09 11:11:34;0.00;0.00;0.62;0.00;0.00;0.62;4.00;3.60;;;26.60;28.20;;;;;;2252900;61;20707;-67
2021/10/09 11:14:21;0.00;0.00;0.62;0.00;0.00;0.62;4.27;3.87;;;26.60;28.10;;;;;;2253912;61;20406;-67
2021/10/09 11:17:07;0.00;0.00;0.62;0.00;0.00;0.62;3.80;3.50;;;26.70;28.10;;;;;;2253346;61;20367;-67
2021/10/09 11:19:51;0.00;0.00;0.62;0.00;0.00;0.62;3.57;3.27;;;26.80;28.10;;;;;;2252744;61;20700;-67
2021/10/09 11:22:43;0.00;0.00;0.62;0.00;0.00;0.62;4.70;3.80;;;26.80;28.10;;;;;;2253780;61;20407;-67
2021/10/09 11:25:31;0.00;0.00;0.62;0.00;0.00;0.62;4.03;3.60;;;26.80;28.00;;;;;;2253466;61;20748;-67
2021/10/09 11:28:21;0.00;0.00;0.62;0.00;0.00;0.62;4.43;3.90;;;26.90;28.00;;;;;;2252854;61;20419;-67
2021/10/09 11:31:05;0.00;0.00;0.62;0.00;0.00;0.62;4.20;3.30;;;27.00;28.00;;;;;;2253276;61;20442;-67
2021/10/09 11:33:56;0.00;0.00;0.62;0.00;0.00;0.62;4.13;3.63;;;27.00;27.90;;;;;;2253372;61;20403;-67
2021/10/09 11:36:41;0.00;0.00;0.62;0.00;0.00;0.62;4.37;3.20;;;27.10;27.90;;;;;;2253650;61;20375;-67
2021/10/09 11:39:27;0.00;0.00;0.62;0.00;0.00;0.62;3.90;3.50;;;27.20;27.90;;;;;;2253499;61;20493;-67
2021/10/09 11:42:14;0.00;0.00;0.62;0.00;0.00;0.62;3.97;3.47;;;27.20;27.80;;;;;;2252862;61;20364;-67
2021/10/09 11:45:10;0.00;0.00;0.62;0.00;0.00;0.62;3.63;3.33;;;27.30;27.90;;;;;;2253428;61;20472;-67
2021/10/09 11:56:51;0.00;0.00;0.62;0.00;0.00;0.62;3.50;3.00;;;27.50;27.70;;;;;;2252624;61;20356;-67
2021/10/09 11:59:38;0.00;0.00;0.62;0.00;0.00;0.62;3.43;3.00;;;27.60;27.70;;;;;;2253678;61;20363;-67
2021/10/09 12:02:35;0.00;0.00;0.62;0.00;0.00;0.62;3.77;3.37;;;27.60;27.70;;;;;;2253522;61;20367;-67
2021/10/09 12:05:20;0.00;0.00;0.62;0.00;0.00;0.62;4.37;3.40;;;27.70;27.70;;;;;;2252718;61;20371;-67
2021/10/09 12:08:14;0.00;0.00;0.62;0.00;0.00;0.62;3.47;3.17;;;27.70;27.60;;;;;;2253478;61;20610;-67
2021/10/09 12:11:10;0.00;0.00;0.62;0.00;0.00;0.62;3.47;2.90;;;27.80;27.70;;;;;;2252944;61;20372;-67
2021/10/09 12:13:57;0.00;0.00;0.62;0.00;0.00;0.62;3.57;3.27;;;27.80;27.80;;;;;;2253603;61;20383;-67
2021/10/09 12:16:44;0.00;0.00;0.62;0.00;0.00;0.62;3.80;3.43;;;27.80;27.60;;;;;;2253277;61;20371;-67
2021/10/09 12:19:30;0.00;0.00;0.62;0.00;0.00;0.62;3.57;3.10;;;27.90;27.70;;;;;;2249519;61;20610;-67
2021/10/09 12:22:14;0.00;0.00;0.62;0.00;0.00;0.62;4.10;3.70;;;27.90;27.80;;;;;;2253798;61;20592;-67
2021/10/09 12:25:00;0.00;0.00;0.62;0.00;0.00;0.62;4.60;2.90;;;28.00;27.80;;;;;;2253427;61;20375;-68
2021/10/09 12:27:53;0.00;0.00;0.62;0.00;0.00;0.62;3.73;2.87;;;28.00;27.80;;;;;;2253125;61;20391;-67
2021/10/09 12:30:45;0.00;0.00;0.62;0.00;0.00;0.62;3.33;3.03;;;28.10;27.70;;;;;;2253294;61;20429;-67
2021/10/09 12:33:34;0.00;0.00;0.62;0.00;0.00;0.62;3.47;2.70;;;28.20;27.80;;;;;;2252590;61;20836;-67
2021/10/09 12:36:29;0.00;0.00;0.62;0.00;0.00;0.62;3.20;2.90;;;28.20;27.70;;;;;;2253430;61;20400;-67
2021/10/09 12:39:25;0.00;0.00;0.62;0.00;0.00;0.62;3.63;2.90;;;28.30;27.60;;;;;;2253350;61;20360;-67
2021/10/09 12:42:13;0.00;0.00;0.62;0.00;0.00;0.62;3.63;3.07;;;28.40;27.60;;;;;;2252758;61;20398;-67
2021/10/09 12:44:58;0.00;0.00;0.62;0.00;0.00;0.62;2.80;2.50;;;28.40;27.50;;;;;;2253490;61;20367;-67
2021/10/09 12:47:44;0.00;0.00;0.62;0.00;0.00;0.62;3.03;2.73;;;28.50;27.50;;;;;;2252888;61;20379;-67
2021/10/09 12:50:31;0.00;0.00;0.62;0.00;0.00;0.62;4.10;2.70;;;28.60;27.50;;;;;;2253638;61;20437;-67
2021/10/09 12:53:15;0.00;0.00;0.62;0.00;0.00;0.62;3.50;2.80;;;28.60;27.40;;;;;;2253474;61;20387;-67
2021/10/09 12:56:00;0.00;0.00;0.62;0.00;0.00;0.62;3.00;2.73;;;28.60;27.40;;;;;;2252896;61;20391;-67
2021/10/09 12:58:46;0.00;0.00;0.62;0.00;0.00;0.62;3.30;3.00;;;28.70;27.40;;;;;;2254236;61;20387;-67
2021/10/09 13:01:30;0.00;0.00;0.62;0.00;0.00;0.62;3.00;2.70;;;28.80;27.30;;;;;;2254014;61;20368;-67